sensor_id;sensor_type;location;lat;lon;timestamp;pressure;altitude;pressure_sealevel;temperature;humidity
70954;BME280;58618;47.490;8.736;2022-12-07T00:01:53;96604.25;;;2.36;100.00
70954;BME280;58618;47.490;8.736;2022-12-07T00:04:41;96609.09;;;2.26;100.00
70954;BME280;58618;47.490;8.736;2022-12-07T00:07:28;96608.47;;;2.42;100.00
70954;BME280;58618;47.490;8.736;2022-12-07T00:10:15;96605.91;;;2.30;100.00
70954;BME280;58618;47.490;8.736;2022-12-07T00:13:03;96603.56;;;2.29;100.00
70954;BME280;58618;47.490;8.736;2022-12-07T00:15:50;96608.03;;;2.45;100.00
70954;BME280;58618;47.490;8.736;2022-12-07T00:18:39;96594.44;;;2.51;100.00
70954;BME280;58618;47.490;8.736;2022-12-07T00:21:29;96603.41;;;2.53;100.00
70954;BME280;58618;47.490;8.736;2022-12-07T00:24:17;96600.41;;;2.57;100.00
70954;BME280;58618;47.490;8.736;2022-12-07T00:27:04;96601.19;;;2.57;100.00
70954;BME280;58618;47.490;8.736;2022-12-07T00:29:51;96596.09;;;2.57;100.00
70954;BME280;58618;47.490;8.736;2022-12-07T00:32:39;96602.44;;;2.66;100.00
70954;BME280;58618;47.490;8.736;2022-12-07T00:35:27;96588.25;;;2.59;100.00
70954;BME280;58618;47.490;8.736;2022-12-07T00:38:15;96601.88;;;2.64;100.00
70954;BME280;58618;47.490;8.736;2022-12-07T00:41:04;96595.66;;;2.60;100.00
70954;BME280;58618;47.490;8.736;2022-12-07T00:43:52;96605.53;;;2.68;100.00
70954;BME280;58618;47.490;8.736;2022-12-07T00:46:39;96601.09;;;2.64;100.00
70954;BME280;58618;47.490;8.736;2022-12-07T00:49:26;96593.69;;;2.62;100.00
70954;BME280;58618;47.490;8.736;2022-12-07T00:52:15;96597.09;;;2.56;100.00
70954;BME280;58618;47.490;8.736;2022-12-07T00:55:03;96599.53;;;2.51;100.00
70954;BME280;58618;47.490;8.736;2022-12-07T00:57:50;96590.66;;;2.42;100.00
70954;BME280;58618;47.490;8.736;2022-12-07T01:00:39;96602.75;;;2.58;100.00
70954;BME280;58618;47.490;8.736;2022-12-07T01:03:27;96601.38;;;2.44;100.00
70954;BME280;58618;47.490;8.736;2022-12-07T01:06:16;96602.06;;;2.51;100.00
70954;BME280;58618;47.490;8.736;2022-12-07T01:09:05;96595.00;;;2.53;100.00
70954;BME280;58618;47.490;8.736;2022-12-07T01:11:52;96596.09;;;2.57;100.00
70954;BME280;58618;47.490;8.736;2022-12-07T01:14:41;96594.88;;;2.48;100.00
70954;BME280;58618;47.490;8.736;2022-12-07T01:17:28;96589.66;;;2.43;100.00
70954;BME280;58618;47.490;8.736;2022-12-07T01:20:16;96598.88;;;2.55;100.00
70954;BME280;58618;47.490;8.736;2022-12-07T01:23:04;96600.34;;;2.63;100.00
70954;BME280;58618;47.490;8.736;2022-12-07T01:25:55;96595.25;;;2.63;100.00
70954;BME280;58618;47.490;8.736;2022-12-07T01:28:43;96591.69;;;2.64;100.00
70954;BME280;58618;47.490;8.736;2022-12-07T01:31:31;96592.25;;;2.66;100.00
70954;BME280;58618;47.490;8.736;2022-12-07T01:34:18;96597.44;;;2.48;100.00
70954;BME280;58618;47.490;8.736;2022-12-07T01:37:05;96588.31;;;2.40;100.00
70954;BME280;58618;47.490;8.736;2022-12-07T01:39:53;96596.97;;;2.51;100.00
70954;BME280;58618;47.490;8.736;2022-12-07T01:42:42;96600.28;;;2.40;100.00
70954;BME280;58618;47.490;8.736;2022-12-07T01:45:39;96598.47;;;2.29;100.00
70954;BME280;58618;47.490;8.736;2022-12-07T01:48:29;96597.03;;;2.33;100.00
70954;BME280;58618;47.490;8.736;2022-12-07T01:51:19;96602.00;;;2.28;100.00
70954;BME280;58618;47.490;8.736;2022-12-07T01:54:06;96591.56;;;2.18;100.00
70954;BME280;58618;47.490;8.736;2022-12-07T01:56:56;96602.50;;;2.36;100.00
70954;BME280;58618;47.490;8.736;2022-12-07T01:59:47;96591.31;;;2.49;100.00
70954;BME280;58618;47.490;8.736;2022-12-07T02:02:38;96588.91;;;2.54;100.00
70954;BME280;58618;47.490;8.736;2022-12-07T02:05:28;96588.78;;;2.49;100.00
70954;BME280;58618;47.490;8.736;2022-12-07T02:08:16;96550.47;;;2.44;100.00
70954;BME280;58618;47.490;8.736;2022-12-07T02:11:05;96568.22;;;2.62;100.00
70954;BME280;58618;47.490;8.736;2022-12-07T02:13:54;96564.31;;;2.60;100.00
70954;BME280;58618;47.490;8.736;2022-12-07T02:16:50;96585.28;;;2.73;100.00
70954;BME280;58618;47.490;8.736;2022-12-07T02:20:06;96581.38;;;2.71;100.00
70954;BME280;58618;47.490;8.736;2022-12-07T02:23:23;96572.84;;;2.65;100.00
70954;BME280;58618;47.490;8.736;2022-12-07T02:29:57;96571.88;;;2.66;100.00
70954;BME280;58618;47.490;8.736;2022-12-07T02:32:51;96577.84;;;2.72;100.00
70954;BME280;58618;47.490;8.736;2022-12-07T02:35:45;96584.94;;;2.70;100.00
70954;BME280;58618;47.490;8.736;2022-12-07T02:38:37;96576.84;;;2.61;100.00
70954;BME280;58618;47.490;8.736;2022-12-07T02:41:29;96584.38;;;2.56;100.00
70954;BME280;58618;47.490;8.736;2022-12-07T02:44:18;96580.06;;;2.57;100.00
70954;BME280;58618;47.490;8.736;2022-12-07T02:47:10;96568.84;;;2.46;100.00
70954;BME280;58618;47.490;8.736;2022-12-07T02:50:00;96576.53;;;2.69;100.00
70954;BME280;58618;47.490;8.736;2022-12-07T02:52:49;96585.25;;;2.50;100.00
70954;BME280;58618;47.490;8.736;2022-12-07T02:55:39;96583.03;;;2.42;100.00
70954;BME280;58618;47.490;8.736;2022-12-07T02:58:34;96574.63;;;2.53;100.00
70954;BME280;58618;47.490;8.736;2022-12-07T03:01:30;96576.75;;;2.68;100.00
70954;BME280;58618;47.490;8.736;2022-12-07T03:04:33;96568.91;;;2.69;100.00
70954;BME280;58618;47.490;8.736;2022-12-07T03:07:33;96566.22;;;2.76;100.00
70954;BME280;58618;47.490;8.736;2022-12-07T03:10:32;96543.09;;;2.66;100.00
70954;BME280;58618;47.490;8.736;2022-12-07T03:13:25;96558.47;;;2.82;100.00
70954;BME280;58618;47.490;8.736;2022-12-07T03:16:16;96556.38;;;2.79;100.00
70954;BME280;58618;47.490;8.736;2022-12-07T03:19:08;96553.72;;;2.86;100.00
70954;BME280;58618;47.490;8.736;2022-12-07T03:22:00;96554.63;;;2.80;100.00
70954;BME280;58618;47.490;8.736;2022-12-07T03:24:51;96556.72;;;2.83;100.00
70954;BME280;58618;47.490;8.736;2022-12-07T03:27:43;96553.72;;;2.86;100.00
70954;BME280;58618;47.490;8.736;2022-12-07T03:30:37;96559.16;;;2.89;100.00
70954;BME280;58618;47.490;8.736;2022-12-07T03:33:30;96555.38;;;2.80;100.00
70954;BME280;58618;47.490;8.736;2022-12-07T03:36:21;96556.28;;;2.74;100.00
70954;BME280;58618;47.490;8.736;2022-12-07T03:39:22;96562.91;;;2.75;100.00
70954;BME280;58618;47.490;8.736;2022-12-07T03:42:12;96552.28;;;2.78;100.00
70954;BME280;58618;47.490;8.736;2022-12-07T03:45:00;96560.91;;;2.77;100.00
70954;BME280;58618;47.490;8.736;2022-12-07T03:47:53;96565.44;;;2.75;100.00
70954;BME280;58618;47.490;8.736;2022-12-07T03:50:44;96562.91;;;2.75;100.00
70954;BME280;58618;47.490;8.736;2022-12-07T03:53:39;96557.16;;;2.68;100.00
70954;BME280;58618;47.490;8.736;2022-12-07T03:56:31;96555.81;;;2.66;100.00
70954;BME280;58618;47.490;8.736;2022-12-07T03:59:20;96550.50;;;2.67;100.00
70954;BME280;58618;47.490;8.736;2022-12-07T04:02:11;96561.38;;;2.74;100.00
70954;BME280;58618;47.490;8.736;2022-12-07T04:05:00;96562.38;;;2.73;100.00
70954;BME280;58618;47.490;8.736;2022-12-07T04:07:48;96550.50;;;2.67;100.00
70954;BME280;58618;47.490;8.736;2022-12-07T04:10:35;96559.69;;;2.68;100.00
70954;BME280;58618;47.490;8.736;2022-12-07T04:13:24;96560.69;;;2.67;100.00
70954;BME280;58618;47.490;8.736;2022-12-07T04:16:11;96560.69;;;2.67;100.00
70954;BME280;58618;47.490;8.736;2022-12-07T04:18:59;96545.88;;;2.64;100.00
70954;BME280;58618;47.490;8.736;2022-12-07T04:21:47;96553.63;;;2.69;100.00
70954;BME280;58618;47.490;8.736;2022-12-07T04:24:34;96555.16;;;2.70;100.00
70954;BME280;58618;47.490;8.736;2022-12-07T04:27:22;96560.59;;;2.74;100.00
70954;BME280;58618;47.490;8.736;2022-12-07T04:30:11;96552.38;;;2.72;100.00
70954;BME280;58618;47.490;8.736;2022-12-07T04:32:58;96546.09;;;2.74;100.00
70954;BME280;58618;47.490;8.736;2022-12-07T04:35:46;96551.63;;;2.71;100.00
70954;BME280;58618;47.490;8.736;2022-12-07T04:38:33;96542.06;;;2.55;100.00
70954;BME280;58618;47.490;8.736;2022-12-07T04:41:21;96556.81;;;2.65;100.00
70954;BME280;58618;47.490;8.736;2022-12-07T04:44:16;96558.81;;;2.63;100.00
70954;BME280;58618;47.490;8.736;2022-12-07T04:47:05;96560.47;;;2.57;100.00
70954;BME280;58618;47.490;8.736;2022-12-07T04:49:52;96562.34;;;2.62;100.00
70954;BME280;58618;47.490;8.736;2022-12-07T04:52:39;96563.13;;;2.62;100.00
70954;BME280;58618;47.490;8.736;2022-12-07T04:55:27;96563.44;;;2.66;100.00
70954;BME280;58618;47.490;8.736;2022-12-07T04:58:14;96566.25;;;2.64;100.00
70954;BME280;58618;47.490;8.736;2022-12-07T05:01:02;96566.44;;;2.51;100.00
70954;BME280;58618;47.490;8.736;2022-12-07T05:03:51;96562.91;;;2.52;100.00
70954;BME280;58618;47.490;8.736;2022-12-07T05:06:38;96564.09;;;2.49;100.00
70954;BME280;58618;47.490;8.736;2022-12-07T05:09:26;96548.03;;;2.49;100.00
70954;BME280;58618;47.490;8.736;2022-12-07T05:12:13;96567.13;;;2.58;100.00
70954;BME280;58618;47.490;8.736;2022-12-07T05:15:01;96561.56;;;2.61;100.00
70954;BME280;58618;47.490;8.736;2022-12-07T05:17:48;96568.78;;;2.64;100.00
70954;BME280;58618;47.490;8.736;2022-12-07T05:20:37;96562.03;;;2.58;100.00
70954;BME280;58618;47.490;8.736;2022-12-07T05:23:24;96558.03;;;2.62;100.00
70954;BME280;58618;47.490;8.736;2022-12-07T05:26:11;96563.19;;;2.44;100.00
70954;BME280;58618;47.490;8.736;2022-12-07T05:28:59;96561.78;;;2.48;100.00
70954;BME280;58618;47.490;8.736;2022-12-07T05:31:46;96560.66;;;2.44;100.00
70954;BME280;58618;47.490;8.736;2022-12-07T05:34:35;96554.03;;;2.43;100.00
70954;BME280;58618;47.490;8.736;2022-12-07T05:37:24;96565.56;;;2.57;100.00
70954;BME280;58618;47.490;8.736;2022-12-07T05:40:13;96558.81;;;2.63;100.00
70954;BME280;58618;47.490;8.736;2022-12-07T05:43:01;96556.47;;;2.61;100.00
70954;BME280;58618;47.490;8.736;2022-12-07T05:45:48;96546.53;;;2.48;100.00
70954;BME280;58618;47.490;8.736;2022-12-07T05:48:35;96556.88;;;2.35;100.00
70954;BME280;58618;47.490;8.736;2022-12-07T05:51:23;96564.69;;;2.10;100.00
70954;BME280;58618;47.490;8.736;2022-12-07T05:54:11;96567.56;;;2.13;100.00
70954;BME280;58618;47.490;8.736;2022-12-07T05:56:59;96560.19;;;2.24;100.00
70954;BME280;58618;47.490;8.736;2022-12-07T05:59:46;96564.41;;;2.30;100.00
70954;BME280;58618;47.490;8.736;2022-12-07T06:02:33;96563.19;;;2.32;100.00
70954;BME280;58618;47.490;8.736;2022-12-07T06:05:20;96567.16;;;2.28;100.00
70954;BME280;58618;47.490;8.736;2022-12-07T06:08:08;96563.94;;;2.21;100.00
70954;BME280;58618;47.490;8.736;2022-12-07T06:10:56;96571.53;;;2.09;100.00
70954;BME280;58618;47.490;8.736;2022-12-07T06:13:58;96567.50;;;2.32;100.00
70954;BME280;58618;47.490;8.736;2022-12-07T06:16:45;96575.06;;;2.50;100.00
70954;BME280;58618;47.490;8.736;2022-12-07T06:19:33;96570.66;;;2.57;100.00
70954;BME280;58618;47.490;8.736;2022-12-07T06:22:21;96574.59;;;2.30;100.00
70954;BME280;58618;47.490;8.736;2022-12-07T06:25:08;96571.28;;;2.41;100.00
70954;BME280;58618;47.490;8.736;2022-12-07T06:27:57;96566.88;;;2.48;100.00
70954;BME280;58618;47.490;8.736;2022-12-07T06:30:44;96575.06;;;2.50;100.00
70954;BME280;58618;47.490;8.736;2022-12-07T06:33:32;96587.75;;;2.38;100.00
70954;BME280;58618;47.490;8.736;2022-12-07T06:36:20;96574.34;;;2.20;100.00
70954;BME280;58618;47.490;8.736;2022-12-07T06:39:07;96565.72;;;2.21;100.00
70954;BME280;58618;47.490;8.736;2022-12-07T06:41:55;96576.00;;;2.26;100.00
70954;BME280;58618;47.490;8.736;2022-12-07T06:44:44;96579.91;;;2.40;100.00
70954;BME280;58618;47.490;8.736;2022-12-07T06:47:32;96563.81;;;2.16;100.00
70954;BME280;58618;47.490;8.736;2022-12-07T06:50:19;96577.34;;;2.28;100.00
70954;BME280;58618;47.490;8.736;2022-12-07T06:53:08;96586.69;;;2.46;100.00
70954;BME280;58618;47.490;8.736;2022-12-07T06:55:56;96585.81;;;2.52;100.00
70954;BME280;58618;47.490;8.736;2022-12-07T06:58:43;96582.34;;;2.35;100.00
70954;BME280;58618;47.490;8.736;2022-12-07T07:01:33;96576.13;;;2.31;100.00
70954;BME280;58618;47.490;8.736;2022-12-07T07:04:20;96570.84;;;2.32;100.00
70954;BME280;58618;47.490;8.736;2022-12-07T07:07:08;96561.88;;;2.41;100.00
70954;BME280;58618;47.490;8.736;2022-12-07T07:09:55;96585.47;;;2.60;100.00
70954;BME280;58618;47.490;8.736;2022-12-07T07:12:43;96579.28;;;2.56;100.00
70954;BME280;58618;47.490;8.736;2022-12-07T07:15:32;96555.16;;;2.47;100.00
70954;BME280;58618;47.490;8.736;2022-12-07T07:18:21;96573.63;;;2.54;100.00
70954;BME280;58618;47.490;8.736;2022-12-07T07:21:09;96573.97;;;2.58;100.00
70954;BME280;58618;47.490;8.736;2022-12-07T07:23:56;96576.44;;;2.64;100.00
70954;BME280;58618;47.490;8.736;2022-12-07T07:26:44;96571.44;;;2.58;100.00
70954;BME280;58618;47.490;8.736;2022-12-07T07:29:31;96584.47;;;2.61;100.00
70954;BME280;58618;47.490;8.736;2022-12-07T07:32:19;96583.03;;;2.42;100.00
70954;BME280;58618;47.490;8.736;2022-12-07T07:35:09;96568.75;;;2.41;100.00
70954;BME280;58618;47.490;8.736;2022-12-07T07:37:56;96586.56;;;2.41;100.00
70954;BME280;58618;47.490;8.736;2022-12-07T07:40:44;96593.78;;;2.55;100.00
70954;BME280;58618;47.490;8.736;2022-12-07T07:43:33;96582.69;;;2.50;100.00
70954;BME280;58618;47.490;8.736;2022-12-07T07:46:20;96579.16;;;2.51;100.00
70954;BME280;58618;47.490;8.736;2022-12-07T07:49:08;96596.53;;;2.54;100.00
70954;BME280;58618;47.490;8.736;2022-12-07T07:51:57;96593.97;;;2.54;100.00
70954;BME280;58618;47.490;8.736;2022-12-07T07:54:45;96600.75;;;2.60;100.00
70954;BME280;58618;47.490;8.736;2022-12-07T07:57:32;96604.31;;;2.59;100.00
70954;BME280;58618;47.490;8.736;2022-12-07T08:00:21;96592.91;;;2.62;100.00
70954;BME280;58618;47.490;8.736;2022-12-07T08:03:08;96583.25;;;2.52;100.00
70954;BME280;58618;47.490;8.736;2022-12-07T08:05:56;96603.41;;;2.65;100.00
70954;BME280;58618;47.490;8.736;2022-12-07T08:08:45;96590.56;;;2.60;100.00
70954;BME280;58618;47.490;8.736;2022-12-07T08:11:32;96607.31;;;2.68;100.00
70954;BME280;58618;47.490;8.736;2022-12-07T08:14:19;96606.06;;;2.70;100.00
70954;BME280;58618;47.490;8.736;2022-12-07T08:17:08;96609.97;;;2.73;100.00
70954;BME280;58618;47.490;8.736;2022-12-07T08:19:55;96599.34;;;2.64;100.00
70954;BME280;58618;47.490;8.736;2022-12-07T08:22:42;96612.06;;;2.64;100.00
70954;BME280;58618;47.490;8.736;2022-12-07T08:25:32;96601.88;;;2.64;100.00
70954;BME280;58618;47.490;8.736;2022-12-07T08:28:20;96614.81;;;2.51;100.00
70954;BME280;58618;47.490;8.736;2022-12-07T08:31:10;96612.47;;;2.49;100.00
70954;BME280;58618;47.490;8.736;2022-12-07T08:33:58;96614.91;;;2.56;100.00
70954;BME280;58618;47.490;8.736;2022-12-07T08:36:46;96627.66;;;2.56;100.00
70954;BME280;58618;47.490;8.736;2022-12-07T08:39:33;96615.91;;;2.55;100.00
70954;BME280;58618;47.490;8.736;2022-12-07T08:42:22;96600.19;;;2.46;100.00
70954;BME280;58618;47.490;8.736;2022-12-07T08:45:15;96623.13;;;2.58;100.00
70954;BME280;58618;47.490;8.736;2022-12-07T08:48:06;96617.03;;;2.59;100.00
70954;BME280;58618;47.490;8.736;2022-12-07T08:50:56;96612.81;;;2.53;100.00
70954;BME280;58618;47.490;8.736;2022-12-07T08:53:44;96609.50;;;2.52;100.00
70954;BME280;58618;47.490;8.736;2022-12-07T08:56:32;96605.19;;;2.53;100.00
70954;BME280;58618;47.490;8.736;2022-12-07T08:59:21;96592.66;;;2.51;100.00
70954;BME280;58618;47.490;8.736;2022-12-07T09:02:09;96614.09;;;2.85;100.00
70954;BME280;58618;47.490;8.736;2022-12-07T09:04:56;96607.88;;;2.81;100.00
70954;BME280;58618;47.490;8.736;2022-12-07T09:07:46;96615.41;;;2.88;100.00
70954;BME280;58618;47.490;8.736;2022-12-07T09:10:35;96609.28;;;2.66;100.00
70954;BME280;58618;47.490;8.736;2022-12-07T09:13:23;96623.00;;;2.53;100.00
70954;BME280;58618;47.490;8.736;2022-12-07T09:16:12;96618.13;;;2.51;100.00
70954;BME280;58618;47.490;8.736;2022-12-07T09:18:59;96609.81;;;2.56;100.00
70954;BME280;58618;47.490;8.736;2022-12-07T09:21:46;96620.25;;;2.66;100.00
70954;BME280;58618;47.490;8.736;2022-12-07T09:24:34;96630.13;;;2.74;100.00
70954;BME280;58618;47.490;8.736;2022-12-07T09:27:21;96628.59;;;2.85;100.00
70954;BME280;58618;47.490;8.736;2022-12-07T09:30:09;96635.34;;;3.03;100.00
70954;BME280;58618;47.490;8.736;2022-12-07T09:32:58;96629.59;;;3.19;100.00
70954;BME280;58618;47.490;8.736;2022-12-07T09:35:46;96624.72;;;3.29;100.00
70954;BME280;58618;47.490;8.736;2022-12-07T09:38:33;96626.59;;;3.33;100.00
70954;BME280;58618;47.490;8.736;2022-12-07T09:41:22;96621.47;;;3.45;100.00
70954;BME280;58618;47.490;8.736;2022-12-07T09:44:13;96634.44;;;3.55;100.00
70954;BME280;58618;47.490;8.736;2022-12-07T09:47:01;96624.91;;;3.39;100.00
70954;BME280;58618;47.490;8.736;2022-12-07T09:49:51;96605.88;;;3.30;100.00
70954;BME280;58618;47.490;8.736;2022-12-07T09:52:38;96616.47;;;3.50;100.00
70954;BME280;58618;47.490;8.736;2022-12-07T09:55:29;96632.09;;;3.65;100.00
70954;BME280;58618;47.490;8.736;2022-12-07T09:58:20;96617.75;;;3.76;100.00
70954;BME280;58618;47.490;8.736;2022-12-07T10:01:12;96610.09;;;3.76;100.00
70954;BME280;58618;47.490;8.736;2022-12-07T10:04:09;96602.63;;;3.46;100.00
70954;BME280;58618;47.490;8.736;2022-12-07T10:07:00;96595.00;;;3.46;100.00
70954;BME280;58618;47.490;8.736;2022-12-07T10:09:47;96608.56;;;3.75;100.00
70954;BME280;58618;47.490;8.736;2022-12-07T10:12:53;96597.78;;;3.85;100.00
70954;BME280;58618;47.490;8.736;2022-12-07T10:15:43;96585.03;;;3.85;100.00
70954;BME280;58618;47.490;8.736;2022-12-07T10:18:33;96591.97;;;4.01;100.00
70954;BME280;58618;47.490;8.736;2022-12-07T10:21:23;96572.00;;;3.98;100.00
70954;BME280;58618;47.490;8.736;2022-12-07T10:24:14;96588.22;;;4.20;100.00
70954;BME280;58618;47.490;8.736;2022-12-07T10:27:02;96578.00;;;4.20;100.00
70954;BME280;58618;47.490;8.736;2022-12-07T10:29:51;96585.81;;;4.30;100.00
70954;BME280;58618;47.490;8.736;2022-12-07T10:32:39;96567.06;;;4.08;100.00
70954;BME280;58618;47.490;8.736;2022-12-07T10:35:28;96580.06;;;4.23;100.00
70954;BME280;58618;47.490;8.736;2022-12-07T10:38:16;96569.41;;;4.26;100.00
70954;BME280;58618;47.490;8.736;2022-12-07T10:41:06;96564.00;;;4.39;100.00
70954;BME280;58618;47.490;8.736;2022-12-07T10:43:56;96571.13;;;4.37;100.00
70954;BME280;58618;47.490;8.736;2022-12-07T10:46:57;96568.03;;;4.35;100.00
70954;BME280;58618;47.490;8.736;2022-12-07T10:50:13;96563.84;;;4.29;100.00
70954;BME280;58618;47.490;8.736;2022-12-07T10:53:18;96564.88;;;4.28;100.00
70954;BME280;58618;47.490;8.736;2022-12-07T10:56:31;96558.66;;;4.24;100.00
70954;BME280;58618;47.490;8.736;2022-12-07T10:59:47;96554.38;;;4.13;100.00
70954;BME280;58618;47.490;8.736;2022-12-07T11:06:10;96538.63;;;4.16;100.00
70954;BME280;58618;47.490;8.736;2022-12-07T11:09:18;96518.50;;;4.03;100.00
70954;BME280;58618;47.490;8.736;2022-12-07T11:12:19;96539.22;;;4.23;100.00
70954;BME280;58618;47.490;8.736;2022-12-07T11:15:15;96539.00;;;4.24;100.00
70954;BME280;58618;47.490;8.736;2022-12-07T11:18:09;96539.72;;;4.20;100.00
70954;BME280;58618;47.490;8.736;2022-12-07T11:21:06;96535.38;;;4.20;100.00
70954;BME280;58618;47.490;8.736;2022-12-07T11:24:01;96518.06;;;4.22;100.00
70954;BME280;58618;47.490;8.736;2022-12-07T11:27:02;96504.13;;;4.30;100.00
70954;BME280;58618;47.490;8.736;2022-12-07T11:30:13;96519.59;;;4.40;100.00
70954;BME280;58618;47.490;8.736;2022-12-07T11:33:15;96521.16;;;4.58;100.00
70954;BME280;58618;47.490;8.736;2022-12-07T11:36:10;96516.34;;;4.61;98.88
70954;BME280;58618;47.490;8.736;2022-12-07T11:39:10;96506.25;;;4.72;98.78
70954;BME280;58618;47.490;8.736;2022-12-07T11:42:03;96494.19;;;4.67;98.77
70954;BME280;58618;47.490;8.736;2022-12-07T11:44:55;96501.63;;;4.68;95.71
70954;BME280;58618;47.490;8.736;2022-12-07T11:47:48;96503.19;;;4.70;96.02
70954;BME280;58618;47.490;8.736;2022-12-07T11:50:41;96498.06;;;4.70;96.13
70954;BME280;58618;47.490;8.736;2022-12-07T11:53:34;96489.06;;;4.84;98.98
70954;BME280;58618;47.490;8.736;2022-12-07T11:56:25;96498.22;;;4.80;95.57
70954;BME280;58618;47.490;8.736;2022-12-07T11:59:17;96491.81;;;4.99;98.81
70954;BME280;58618;47.490;8.736;2022-12-07T12:02:13;96477.97;;;4.95;96.58
70954;BME280;58618;47.490;8.736;2022-12-07T12:05:15;96462.63;;;4.95;95.60
70954;BME280;58618;47.490;8.736;2022-12-07T12:08:13;96486.03;;;5.08;95.19
70954;BME280;58618;47.490;8.736;2022-12-07T12:11:13;96486.56;;;4.89;90.45
70954;BME280;58618;47.490;8.736;2022-12-07T12:14:27;96466.63;;;4.86;91.94
70954;BME280;58618;47.490;8.736;2022-12-07T12:17:48;96482.53;;;4.93;93.03
70954;BME280;58618;47.490;8.736;2022-12-07T12:20:42;96472.53;;;4.70;95.25
70954;BME280;58618;47.490;8.736;2022-12-07T12:23:36;96469.22;;;4.91;95.38
70954;BME280;58618;47.490;8.736;2022-12-07T12:26:29;96460.78;;;4.90;98.70
70954;BME280;58618;47.490;8.736;2022-12-07T12:29:21;96457.50;;;4.95;96.43
70954;BME280;58618;47.490;8.736;2022-12-07T12:32:16;96465.72;;;4.97;95.50
70954;BME280;58618;47.490;8.736;2022-12-07T12:35:28;96468.75;;;4.94;95.66
70954;BME280;58618;47.490;8.736;2022-12-07T12:38:30;96471.25;;;4.89;94.71
70954;BME280;58618;47.490;8.736;2022-12-07T12:41:53;96466.63;;;4.86;95.78
70954;BME280;58618;47.490;8.736;2022-12-07T12:45:18;96462.72;;;4.83;96.80
70954;BME280;58618;47.490;8.736;2022-12-07T12:48:28;96464.44;;;4.78;95.15
70954;BME280;58618;47.490;8.736;2022-12-07T12:51:38;96467.22;;;4.76;96.23
70954;BME280;58618;47.490;8.736;2022-12-07T12:54:28;96459.34;;;4.78;97.44
70954;BME280;58618;47.490;8.736;2022-12-07T12:57:22;96441.63;;;4.71;96.62
70954;BME280;58618;47.490;8.736;2022-12-07T13:00:16;96458.09;;;4.80;95.98
70954;BME280;58618;47.490;8.736;2022-12-07T13:03:04;96452.69;;;4.77;95.38
70954;BME280;58618;47.490;8.736;2022-12-07T13:09:18;96445.28;;;4.75;94.79
70954;BME280;58618;47.490;8.736;2022-12-07T13:12:14;96439.53;;;4.68;92.56
70954;BME280;58618;47.490;8.736;2022-12-07T13:15:03;96437.84;;;4.74;93.75
70954;BME280;58618;47.490;8.736;2022-12-07T13:18:02;96428.69;;;4.78;93.64
70954;BME280;58618;47.490;8.736;2022-12-07T13:20:55;96434.84;;;4.82;95.70
70954;BME280;58618;47.490;8.736;2022-12-07T13:23:54;96427.19;;;4.82;96.25
70954;BME280;58618;47.490;8.736;2022-12-07T13:26:42;96424.63;;;4.82;97.82
70954;BME280;58618;47.490;8.736;2022-12-07T13:29:36;96426.66;;;4.80;96.04
70954;BME280;58618;47.490;8.736;2022-12-07T13:32:25;96420.00;;;4.79;93.39
70954;BME280;58618;47.490;8.736;2022-12-07T13:35:31;96412.44;;;4.67;95.24
70954;BME280;58618;47.490;8.736;2022-12-07T13:38:23;96413.22;;;4.67;95.96
70954;BME280;58618;47.490;8.736;2022-12-07T13:41:14;96409.72;;;4.35;94.89
70954;BME280;58618;47.490;8.736;2022-12-07T13:44:07;96412.03;;;4.53;93.39
70954;BME280;58618;47.490;8.736;2022-12-07T13:47:01;96421.63;;;4.46;95.18
70954;BME280;58618;47.490;8.736;2022-12-07T13:49:53;96373.00;;;4.36;95.44
70954;BME280;58618;47.490;8.736;2022-12-07T13:52:43;96415.00;;;4.67;92.45
70954;BME280;58618;47.490;8.736;2022-12-07T13:55:31;96410.44;;;4.69;96.70
70954;BME280;58618;47.490;8.736;2022-12-07T13:58:19;96401.16;;;4.63;95.02
70954;BME280;58618;47.490;8.736;2022-12-07T14:01:07;96395.44;;;4.56;95.20
70954;BME280;58618;47.490;8.736;2022-12-07T14:03:56;96398.31;;;4.59;93.31
70954;BME280;58618;47.490;8.736;2022-12-07T14:07:20;96391.59;;;4.53;94.08
70954;BME280;58618;47.490;8.736;2022-12-07T14:10:23;96395.44;;;4.56;95.29
70954;BME280;58618;47.490;8.736;2022-12-07T14:13:27;96396.84;;;4.63;95.27
70954;BME280;58618;47.490;8.736;2022-12-07T14:16:24;96393.91;;;4.55;95.91
70954;BME280;58618;47.490;8.736;2022-12-07T14:19:43;96400.66;;;4.44;93.85
70954;BME280;58618;47.490;8.736;2022-12-07T14:22:33;96391.53;;;4.48;95.12
70954;BME280;58618;47.490;8.736;2022-12-07T14:25:21;96386.31;;;4.21;94.30
70954;BME280;58618;47.490;8.736;2022-12-07T14:28:25;96393.28;;;4.26;97.40
70954;BME280;58618;47.490;8.736;2022-12-07T14:31:14;96376.81;;;4.17;98.59
70954;BME280;58618;47.490;8.736;2022-12-07T14:34:02;96387.63;;;4.24;100.00
70954;BME280;58618;47.490;8.736;2022-12-07T14:36:51;96389.66;;;4.22;99.60
70954;BME280;58618;47.490;8.736;2022-12-07T14:39:40;96380.31;;;4.11;99.33
70954;BME280;58618;47.490;8.736;2022-12-07T14:42:35;96374.50;;;3.99;100.00
70954;BME280;58618;47.490;8.736;2022-12-07T14:45:23;96389.28;;;3.97;100.00
70954;BME280;58618;47.490;8.736;2022-12-07T14:48:11;96385.66;;;3.93;100.00
70954;BME280;58618;47.490;8.736;2022-12-07T14:50:59;96378.38;;;3.85;100.00
70954;BME280;58618;47.490;8.736;2022-12-07T14:53:49;96394.16;;;3.81;100.00
70954;BME280;58618;47.490;8.736;2022-12-07T14:56:37;96392.84;;;3.79;100.00
70954;BME280;58618;47.490;8.736;2022-12-07T14:59:25;96390.75;;;3.76;100.00
70954;BME280;58618;47.490;8.736;2022-12-07T15:02:13;96387.41;;;3.75;100.00
70954;BME280;58618;47.490;8.736;2022-12-07T15:05:01;96388.88;;;3.71;100.00
70954;BME280;58618;47.490;8.736;2022-12-07T15:07:49;96373.44;;;3.61;100.00
70954;BME280;58618;47.490;8.736;2022-12-07T15:10:38;96383.94;;;3.65;100.00
70954;BME280;58618;47.490;8.736;2022-12-07T15:13:26;96385.19;;;3.62;100.00
70954;BME280;58618;47.490;8.736;2022-12-07T15:16:31;96387.19;;;3.60;100.00
70954;BME280;58618;47.490;8.736;2022-12-07T15:19:20;96388.66;;;3.56;100.00
70954;BME280;58618;47.490;8.736;2022-12-07T15:22:08;96388.56;;;3.51;100.00